Hauptseite
METAR-TAF:

METAR-TAF

Flughäfen :

Agen, Frankreich

Flughafen Agen

Breite: 44-11N, Länge: 000-36E, Höhe: 61 m

Beobachtung

Neuester Wetterbericht von vor 15 Minuten, um 06:30 UTC
Wind 4 kt aus Ost
Temperatur 13°C
Luftfeuchtigkeit 88%
Luftdruck 1016 hPa
Sichtweite 10 km oder mehr
keine Wolken unter 1500 m und keine Kumulonimbus oder Gewitterwolken

METAR: LFBA 220630Z AUTO 10004KT CAVOK 13/11 Q1016 NOSIG

Zeit: 08:45 (06:45 UTC)

Prognose

Neuester Wetterbericht von vor 1 Stunde und 45 Minuten, um 05:00 UTC
Gültige Prognose vom 22 um 06 UTC bis 22 um 15 UTC
Wind 6 kt aus Ost/Südost
Sichtweite 10 km oder mehr
keine Wolken unter 1500 m und keine Kumulonimbus oder Gewitterwolken

TAF: LFBA 220500Z 2206/2215 12006KT CAVOK

Wetterbeobachtungen und Prognosen von mehr als 4000 Flughäfen (METAR und TAF Bericht).

Die verfügbaren Stationen werden durch gelbe und rote Markierungen auf der Karte dargestellt.

Führen Sie die Maus auf sie, um den Namen der Station zu sehen.

Darauf klicken, um die Beobachtung von Wetterbeobachtungen und Prognosen zu sehen.

Um die Karte zu ändern : klicken Sie auf den grünen Tasten mit einem schwarzen Kreuz Zum Vergrößern, auf den grünen Button mit einem Gedankenstrich zu verkleinern, oder auf die grünen Pfeile für benachbarte Karten.


METAR-TAF: